Time;durP1;ratioP1;P1;durP2;ratioP2;P2;SDS_P1;SDS_P2;PMS_P1;PMS_P2;Temp;Humidity;BMP_temperature;BMP_pressure;BME280_temperature;BME280_humidity;BME280_pressure;Samples;Min_cycle;Max_cycle;Signal;HPM_P1;HPM_P2
2023/08/14 00:02:07;;;;;;;;;;;;;;;26.21;56.34;100965.88;6253472;23;19912;-80
2023/08/14 00:04:56;;;;;;;;;;;;;;;26.15;56.22;100965.53;6232491;23;19907;-80
2023/08/14 00:07:48;;;;;;;;;;;;;;;26.13;56.01;100965.16;6254634;23;19907;-80
2023/08/14 00:10:40;;;;;;;;;;;;;;;26.01;56.68;100974.03;6254185;23;20242;-80
2023/08/14 00:13:29;;;;;;;;;;;;;;;26.01;56.26;100971.25;6232530;23;19907;-80
2023/08/14 00:16:21;;;;;;;;;;;;;;;26.01;56.69;100971.25;6253370;23;19907;-80
2023/08/14 00:19:13;;;;;;;;;;;;;;;26.03;56.23;100957.72;6253760;23;19916;-80
2023/08/14 00:22:05;;;;;;;;;;;;;;;25.91;56.56;100958.22;6253534;23;20327;-80
2023/08/14 00:24:57;;;;;;;;;;;;;;;25.96;56.49;100954.97;6253188;23;19907;-80
2023/08/14 00:27:49;;;;;;;;;;;;;;;26.03;56.02;100954.13;6253071;23;19912;-80
2023/08/14 00:30:40;;;;;;;;;;;;;;;25.87;56.43;100946.31;6231327;23;19912;-80
2023/08/14 00:33:30;;;;;;;;;;;;;;;25.86;56.39;100947.53;6231375;23;19908;-80
2023/08/14 00:36:22;;;;;;;;;;;;;;;25.89;55.74;100943.94;6231620;23;19908;-80
2023/08/14 00:39:11;;;;;;;;;;;;;;;25.82;55.83;100949.56;6231767;23;19911;-79
2023/08/14 00:42:03;;;;;;;;;;;;;;;25.73;56.41;100946.47;6252978;23;19911;-80
2023/08/14 00:44:55;;;;;;;;;;;;;;;25.59;56.66;100947.41;6232114;23;20323;-80
2023/08/14 00:47:45;;;;;;;;;;;;;;;25.40;55.64;100954.28;6232134;23;19907;-80
2023/08/14 00:50:38;;;;;;;;;;;;;;;25.35;56.05;100963.09;6232172;23;19908;-80
2023/08/14 00:53:28;;;;;;;;;;;;;;;25.37;56.15;100957.09;6232249;23;19907;-80
2023/08/14 00:56:18;;;;;;;;;;;;;;;25.46;55.84;100954.63;6231521;23;20348;-80
2023/08/14 00:59:10;;;;;;;;;;;;;;;25.50;55.41;100956.19;6231087;23;19911;-80
2023/08/14 01:02:02;;;;;;;;;;;;;;;25.51;55.55;100960.56;6254211;23;20250;-80
2023/08/14 01:04:54;;;;;;;;;;;;;;;25.49;55.34;100963.00;6210858;23;19908;-80
2023/08/14 01:07:46;;;;;;;;;;;;;;;25.36;54.77;100973.03;6231988;23;19911;-79
2023/08/14 01:10:45;;;;;;;;;;;;;;;25.29;54.73;100967.53;6252939;23;19907;-80
2023/08/14 01:13:44;;;;;;;;;;;;;;;25.35;54.02;100960.28;6231901;23;19907;-80
2023/08/14 01:16:38;;;;;;;;;;;;;;;25.37;53.55;100957.91;6231519;23;19907;-80
2023/08/14 01:19:42;;;;;;;;;;;;;;;25.40;53.33;100945.13;6230767;23;19912;-79
2023/08/14 01:22:36;;;;;;;;;;;;;;;25.43;52.61;100945.13;6254925;23;19908;-80
2023/08/14 01:25:27;;;;;;;;;;;;;;;25.31;52.00;100942.03;6256081;23;19907;-80
2023/08/14 01:28:19;;;;;;;;;;;;;;;25.37;51.73;100946.75;6255713;23;19907;-80
2023/08/14 01:31:11;;;;;;;;;;;;;;;25.29;51.96;100950.03;6233848;23;19907;-80
2023/08/14 01:34:03;;;;;;;;;;;;;;;25.32;51.25;100944.41;6254769;23;19907;-80
2023/08/14 01:36:58;;;;;;;;;;;;;;;25.38;51.09;100947.56;6233182;23;19907;-80
2023/08/14 01:40:08;;;;;;;;;;;;;;;25.28;51.79;100945.66;6232687;23;19911;-79
2023/08/14 01:43:09;;;;;;;;;;;;;;;25.29;51.41;100938.88;6255823;23;19908;-80
2023/08/14 01:46:01;;;;;;;;;;;;;;;25.18;51.41;100943.75;6255828;23;19908;-80
2023/08/14 01:48:54;;;;;;;;;;;;;;;25.25;51.63;100941.69;6255441;23;19907;-80
2023/08/14 01:51:45;;;;;;;;;;;;;;;25.29;51.72;100944.47;6233860;23;19907;-80
2023/08/14 01:54:37;;;;;;;;;;;;;;;25.27;51.95;100936.50;6233049;23;19907;-79
2023/08/14 01:57:28;;;;;;;;;;;;;;;25.26;51.72;100940.50;6232971;23;19912;-80
2023/08/14 02:00:18;;;;;;;;;;;;;;;25.28;51.93;100937.31;6254448;23;20254;-80
2023/08/14 02:03:10;;;;;;;;;;;;;;;25.21;51.17;100929.78;6255665;23;20327;-80
2023/08/14 02:06:02;;;;;;;;;;;;;;;25.12;52.18;100921.91;6254341;23;19907;-80
2023/08/14 02:08:53;;;;;;;;;;;;;;;24.98;52.74;100924.00;6232089;23;19911;-80
2023/08/14 02:11:43;;;;;;;;;;;;;;;24.87;53.13;100926.03;6255694;23;19903;-80
2023/08/14 02:14:34;;;;;;;;;;;;;;;24.89;53.69;100921.66;6254297;23;19907;-79
2023/08/14 02:17:27;;;;;;;;;;;;;;;24.73;54.82;100924.16;6233154;23;20331;-80
2023/08/14 02:20:19;;;;;;;;;;;;;;;24.64;55.14;100921.78;6233337;23;19911;-80
2023/08/14 02:23:11;;;;;;;;;;;;;;;24.69;55.73;100926.94;6233552;23;19907;-80
2023/08/14 02:26:00;;;;;;;;;;;;;;;24.83;55.56;100928.06;6232653;23;19907;-79
2023/08/14 02:28:52;;;;;;;;;;;;;;;24.83;55.49;100933.63;6232516;23;19907;-81
2023/08/14 02:31:45;;;;;;;;;;;;;;;24.78;55.90;100928.50;6233383;23;19907;-80
2023/08/14 02:34:52;;;;;;;;;;;;;;;24.76;56.43;100923.31;6254959;23;19911;-79
2023/08/14 02:37:44;;;;;;;;;;;;;;;24.77;56.45;100916.56;6254188;23;19911;-80
2023/08/14 02:40:39;;;;;;;;;;;;;;;24.78;55.88;100917.34;6255132;23;19907;-81
2023/08/14 02:43:31;;;;;;;;;;;;;;;24.85;55.83;100914.50;6255451;23;19907;-80
2023/08/14 02:46:18;;;;;;;;;;;;;;;24.85;55.80;100925.63;6233549;23;19907;-80
2023/08/14 02:49:10;;;;;;;;;;;;;;;24.71;56.24;100921.75;6253550;23;19907;-80
2023/08/14 02:52:00;;;;;;;;;;;;;;;24.68;56.05;100921.78;6255589;23;19908;-79
2023/08/14 02:54:52;;;;;;;;;;;;;;;24.74;56.23;100925.72;6232382;23;19907;-79
2023/08/14 02:57:44;;;;;;;;;;;;;;;24.68;56.29;100927.34;6254120;23;19908;-79
2023/08/14 03:00:36;;;;;;;;;;;;;;;24.61;56.98;100930.97;6232530;23;20327;-79
2023/08/14 03:03:28;;;;;;;;;;;;;;;24.63;57.06;100931.34;6253801;23;19907;-80
2023/08/14 03:06:17;;;;;;;;;;;;;;;24.63;57.02;100934.13;6255071;23;19911;-79
2023/08/14 03:09:07;;;;;;;;;;;;;;;24.58;57.27;100933.75;6232520;23;19911;-80
2023/08/14 03:11:59;;;;;;;;;;;;;;;24.57;57.23;100921.06;6253913;23;19907;-80
2023/08/14 03:14:48;;;;;;;;;;;;;;;24.42;57.98;100925.91;6232279;23;19908;-79
2023/08/14 03:17:38;;;;;;;;;;;;;;;24.48;57.88;100932.59;6232377;23;19907;-79
2023/08/14 03:20:30;;;;;;;;;;;;;;;24.49;57.85;100930.59;6211308;23;19919;-79
2023/08/14 03:23:22;;;;;;;;;;;;;;;24.42;57.89;100928.69;6232942;23;19907;-79
2023/08/14 03:26:14;;;;;;;;;;;;;;;24.49;57.30;100927.81;6254826;23;19907;-80
2023/08/14 03:29:06;;;;;;;;;;;;;;;24.49;56.99;100925.03;6252534;23;19911;-79
2023/08/14 03:31:58;;;;;;;;;;;;;;;24.56;55.58;100931.38;6232240;23;19907;-79
2023/08/14 03:34:50;;;;;;;;;;;;;;;24.53;54.50;100929.38;6253484;23;20335;-79
2023/08/14 03:37:42;;;;;;;;;;;;;;;24.61;54.35;100925.41;6232565;23;19907;-79
2023/08/14 03:40:32;;;;;;;;;;;;;;;24.61;54.15;100932.94;6232693;23;19912;-79
2023/08/14 03:43:24;;;;;;;;;;;;;;;24.60;53.99;100934.13;6232781;23;19911;-78
2023/08/14 03:46:16;;;;;;;;;;;;;;;24.53;54.78;100932.16;6232463;23;19911;-79
2023/08/14 03:49:05;;;;;;;;;;;;;;;24.46;55.06;100940.56;6231789;23;19907;-79
2023/08/14 03:51:59;;;;;;;;;;;;;;;24.51;53.75;100942.94;6231945;23;19907;-79
2023/08/14 03:54:51;;;;;;;;;;;;;;;24.51;52.85;100942.94;6254698;23;19911;-79
2023/08/14 03:57:40;;;;;;;;;;;;;;;24.44;53.71;100940.16;6253272;23;20250;-78
2023/08/14 04:00:32;;;;;;;;;;;;;;;24.40;53.42;100944.97;6245421;23;19911;-79
2023/08/14 04:03:24;;;;;;;;;;;;;;;24.43;53.28;100954.50;6254411;23;19907;-79
2023/08/14 04:06:14;;;;;;;;;;;;;;;24.38;53.29;100952.13;6232505;23;19911;-79
2023/08/14 04:09:06;;;;;;;;;;;;;;;24.39;53.41;100948.94;6254348;23;19907;-80
2023/08/14 04:11:58;;;;;;;;;;;;;;;24.41;51.99;100956.88;6254378;23;19911;-79
2023/08/14 04:14:50;;;;;;;;;;;;;;;24.35;52.26;100953.72;6231655;23;19911;-79
2023/08/14 04:17:42;;;;;;;;;;;;;;;24.29;52.16;100958.09;6231943;23;19911;-80
2023/08/14 04:20:31;;;;;;;;;;;;;;;24.26;52.82;100950.56;6253144;23;19912;-80
2023/08/14 04:23:23;;;;;;;;;;;;;;;24.29;52.95;100956.13;6254478;23;19907;-80
2023/08/14 04:26:15;;;;;;;;;;;;;;;24.31;52.05;100957.72;6232492;23;20239;-79
2023/08/14 04:29:11;;;;;;;;;;;;;;;24.31;51.84;100961.28;6252593;23;19907;-78
2023/08/14 04:32:02;;;;;;;;;;;;;;;24.30;51.70;100959.69;6232556;23;20247;-79
2023/08/14 04:34:55;;;;;;;;;;;;;;;24.31;51.81;100957.72;6231915;23;20323;-79
2023/08/14 04:37:47;;;;;;;;;;;;;;;24.23;51.61;100957.72;6231773;23;19911;-79
2023/08/14 04:40:37;;;;;;;;;;;;;;;24.23;52.06;100959.69;6231238;23;20462;-79
2023/08/14 04:43:31;;;;;;;;;;;;;;;24.21;51.62;100951.78;6252984;23;19908;-79
2023/08/14 04:46:39;;;;;;;;;;;;;;;24.24;51.07;100948.19;6232594;23;20242;-80
2023/08/14 04:49:30;;;;;;;;;;;;;;;24.31;50.55;100952.94;6252792;23;19907;-80
2023/08/14 04:52:22;;;;;;;;;;;;;;;24.32;50.63;100950.97;6253042;23;19907;-79
2023/08/14 04:55:12;;;;;;;;;;;;;;;24.29;50.55;100946.97;6230279;23;19908;-79
2023/08/14 04:58:01;;;;;;;;;;;;;;;24.32;49.96;100948.19;6232634;23;19908;-80
2023/08/14 05:00:53;;;;;;;;;;;;;;;24.33;49.84;100950.53;6232876;23;19911;-79
2023/08/14 05:03:45;;;;;;;;;;;;;;;24.31;50.62;100947.38;6254248;23;19908;-79
2023/08/14 05:06:37;;;;;;;;;;;;;;;24.33;50.51;100944.97;6233974;23;19907;-79
2023/08/14 05:09:29;;;;;;;;;;;;;;;24.33;50.81;100953.31;6233353;23;20254;-79
2023/08/14 05:12:19;;;;;;;;;;;;;;;24.31;50.77;100952.94;6233977;23;19907;-79
2023/08/14 05:15:10;;;;;;;;;;;;;;;24.35;50.62;100944.59;6233893;23;19908;-79
2023/08/14 05:17:58;;;;;;;;;;;;;;;24.41;50.87;100954.88;6254666;23;20311;-81
2023/08/14 05:20:49;;;;;;;;;;;;;;;24.53;50.22;100957.19;6254701;23;19915;-81
2023/08/14 05:23:41;;;;;;;;;;;;;;;24.56;50.70;100950.06;6233784;23;19907;-80
2023/08/14 05:26:33;;;;;;;;;;;;;;;24.52;50.77;100952.06;6256160;23;20267;-79
2023/08/14 05:29:23;;;;;;;;;;;;;;;24.61;50.59;100960.75;6255528;23;19908;-79
2023/08/14 05:32:15;;;;;;;;;;;;;;;24.60;50.71;100959.16;6255438;23;20331;-80
2023/08/14 05:35:07;;;;;;;;;;;;;;;24.60;50.81;100962.75;6254526;23;20306;-79
2023/08/14 05:37:59;;;;;;;;;;;;;;;24.71;50.84;100966.25;6255452;23;19911;-79
2023/08/14 05:40:51;;;;;;;;;;;;;;;24.80;51.36;100967.78;6255668;23;20327;-80
2023/08/14 05:43:43;;;;;;;;;;;;;;;24.90;51.34;100962.22;6255161;23;19907;-79
2023/08/14 05:46:30;;;;;;;;;;;;;;;24.92;50.61;100967.38;6255677;23;19907;-79
2023/08/14 05:49:22;;;;;;;;;;;;;;;24.94;50.31;100968.53;6254916;23;20239;-80
2023/08/14 05:52:14;;;;;;;;;;;;;;;24.99;49.78;100970.13;6256380;23;19907;-81
2023/08/14 05:55:06;;;;;;;;;;;;;;;25.10;49.73;100973.59;6255844;23;19907;-79
2023/08/14 05:57:58;;;;;;;;;;;;;;;25.23;49.36;100973.94;6255594;23;19907;-80
2023/08/14 06:00:49;;;;;;;;;;;;;;;25.30;49.15;100971.88;6233802;23;19919;-80
2023/08/14 06:03:39;;;;;;;;;;;;;;;25.39;49.33;100977.78;6253682;23;19907;-80
2023/08/14 06:06:24;;;;;;;;;;;;;;;25.45;48.88;100970.56;6233003;23;20334;-79
2023/08/14 06:09:16;;;;;;;;;;;;;;;25.56;48.73;100981.63;6255775;23;19907;-80
2023/08/14 06:12:08;;;;;;;;;;;;;;;25.61;48.48;100983.97;6255764;23;19911;-79
2023/08/14 06:14:57;;;;;;;;;;;;;;;25.69;47.99;100984.72;6233559;23;20254;-79
2023/08/14 06:17:50;;;;;;;;;;;;;;;25.77;47.29;100980.66;6253859;23;19915;-79
2023/08/14 06:20:39;;;;;;;;;;;;;;;25.92;46.86;100980.13;6255364;23;19916;-79
2023/08/14 06:23:29;;;;;;;;;;;;;;;26.07;47.04;100983.53;6232762;23;19912;-80
2023/08/14 06:26:21;;;;;;;;;;;;;;;26.18;47.16;100981.44;6255092;23;19911;-80
2023/08/14 06:29:13;;;;;;;;;;;;;;;26.31;47.32;100988.06;6253079;23;19907;-79
2023/08/14 06:32:05;;;;;;;;;;;;;;;26.43;46.97;100991.53;6255250;23;20239;-80
2023/08/14 06:34:56;;;;;;;;;;;;;;;26.65;47.03;100985.28;6254040;23;19908;-79
2023/08/14 06:37:48;;;;;;;;;;;;;;;26.86;47.07;100989.00;6255221;23;19911;-79
2023/08/14 06:40:40;;;;;;;;;;;;;;;27.02;46.70;100992.00;6253802;23;20255;-79
2023/08/14 06:43:32;;;;;;;;;;;;;;;27.17;46.67;100988.53;6255150;23;19908;-79
2023/08/14 06:46:24;;;;;;;;;;;;;;;27.21;46.72;101002.47;6255849;23;19907;-78
2023/08/14 06:49:13;;;;;;;;;;;;;;;27.27;46.20;100986.84;6255573;23;20342;-78
2023/08/14 06:52:05;;;;;;;;;;;;;;;27.24;45.81;100999.63;6232994;23;19907;-78
2023/08/14 06:54:57;;;;;;;;;;;;;;;27.29;45.91;100997.56;6255052;23;19907;-78
2023/08/14 06:57:49;;;;;;;;;;;;;;;27.28;46.18;101005.13;6254905;23;19915;-78
2023/08/14 07:00:41;;;;;;;;;;;;;;;27.31;46.28;101003.53;6253938;23;19916;-79
2023/08/14 07:03:31;;;;;;;;;;;;;;;27.47;45.92;101009.25;6255237;23;19907;-78
2023/08/14 07:06:23;;;;;;;;;;;;;;;27.56;44.90;101015.13;6253663;23;19908;-79
2023/08/14 07:09:16;;;;;;;;;;;;;;;27.52;44.66;101014.41;6253485;23;19907;-78
2023/08/14 07:12:08;;;;;;;;;;;;;;;27.61;44.24;101018.22;6253760;23;20255;-79
2023/08/14 07:15:00;;;;;;;;;;;;;;;27.68;43.93;101016.53;6254156;23;19907;-79
2023/08/14 07:17:52;;;;;;;;;;;;;;;27.70;43.48;101019.69;6232942;23;19911;-78
2023/08/14 07:20:44;;;;;;;;;;;;;;;27.77;43.11;101020.34;6254439;23;19911;-79
2023/08/14 07:23:36;;;;;;;;;;;;;;;27.87;43.25;101030.56;6253887;23;19907;-79
2023/08/14 07:26:28;;;;;;;;;;;;;;;28.02;42.53;101025.50;6254939;23;20238;-78
2023/08/14 07:29:20;;;;;;;;;;;;;;;28.06;41.69;101021.44;6252345;23;19911;-78
2023/08/14 07:32:09;;;;;;;;;;;;;;;28.13;41.23;101023.34;6251998;23;19911;-79
2023/08/14 07:35:02;;;;;;;;;;;;;;;28.22;40.48;101028.38;6230188;23;19911;-78
2023/08/14 07:37:54;;;;;;;;;;;;;;;28.34;39.94;101034.09;6253734;23;19907;-78
2023/08/14 07:40:44;;;;;;;;;;;;;;;28.42;40.68;101029.97;6253816;23;19911;-79
2023/08/14 07:43:33;;;;;;;;;;;;;;;28.49;41.55;101027.03;6233525;23;19907;-78
2023/08/14 07:46:25;;;;;;;;;;;;;;;28.54;41.74;101028.53;6255715;23;19908;-78
2023/08/14 07:49:17;;;;;;;;;;;;;;;28.61;41.54;101027.59;6253358;23;19907;-78
2023/08/14 07:52:09;;;;;;;;;;;;;;;28.61;42.21;101030.38;6254685;23;19907;-79
2023/08/14 07:55:02;;;;;;;;;;;;;;;28.71;42.29;101032.97;6232447;23;19908;-79
2023/08/14 07:57:54;;;;;;;;;;;;;;;28.81;42.10;101023.59;6232468;23;19907;-78
2023/08/14 08:00:46;;;;;;;;;;;;;;;28.85;42.75;101027.09;6233112;23;19911;-79
2023/08/14 08:03:35;;;;;;;;;;;;;;;28.77;43.49;101031.28;6254396;23;20242;-79
2023/08/14 08:06:27;;;;;;;;;;;;;;;28.87;43.26;101030.25;6253872;23;20263;-78
2023/08/14 08:09:19;;;;;;;;;;;;;;;28.92;42.99;101038.16;6253773;23;19907;-79
2023/08/14 08:12:09;;;;;;;;;;;;;;;29.02;42.70;101035.53;6254904;23;19907;-79
2023/08/14 08:15:01;;;;;;;;;;;;;;;29.06;42.88;101036.25;6254790;23;19907;-79
2023/08/14 08:17:52;;;;;;;;;;;;;;;29.17;42.91;101031.19;6254668;23;19907;-78
2023/08/14 08:20:44;;;;;;;;;;;;;;;29.30;42.04;101035.69;6254106;23;19911;-79
2023/08/14 08:23:36;;;;;;;;;;;;;;;29.49;41.43;101033.28;6249984;23;19907;-78
2023/08/14 08:26:28;;;;;;;;;;;;;;;29.62;40.78;101032.13;6252889;23;19911;-78
2023/08/14 08:29:20;;;;;;;;;;;;;;;29.73;40.51;101029.84;6252954;23;19908;-78
2023/08/14 08:32:10;;;;;;;;;;;;;;;29.77;40.35;101030.56;6231207;23;19933;-78
2023/08/14 08:35:01;;;;;;;;;;;;;;;29.77;40.84;101030.56;6252868;23;19908;-78
2023/08/14 08:37:53;;;;;;;;;;;;;;;29.83;40.54;101030.81;6252896;23;19907;-78
2023/08/14 08:40:48;;;;;;;;;;;;;;;29.93;40.88;101046.59;6250233;23;19915;-80
2023/08/14 08:43:41;;;;;;;;;;;;;;;29.98;40.53;101042.47;6252875;23;20327;-78
2023/08/14 08:46:35;;;;;;;;;;;;;;;30.00;40.38;101040.03;6231171;23;19907;-79
2023/08/14 08:49:27;;;;;;;;;;;;;;;30.04;40.58;101038.69;6254285;23;19907;-78
2023/08/14 08:52:19;;;;;;;;;;;;;;;30.09;40.26;101037.38;6253797;23;19911;-78
2023/08/14 08:55:11;;;;;;;;;;;;;;;30.17;40.50;101045.16;6254634;23;19911;-79
2023/08/14 08:58:03;;;;;;;;;;;;;;;30.17;40.57;101039.53;6254150;23;19908;-78
2023/08/14 09:00:54;;;;;;;;;;;;;;;30.29;40.52;101046.44;6254149;23;20326;-78
2023/08/14 09:03:46;;;;;;;;;;;;;;;30.39;40.27;101047.38;6253270;23;19907;-79
2023/08/14 09:06:38;;;;;;;;;;;;;;;30.54;40.38;101043.75;6232170;23;20349;-79
2023/08/14 09:09:30;;;;;;;;;;;;;;;30.61;40.00;101047.59;6254250;23;19911;-78
2023/08/14 09:12:22;;;;;;;;;;;;;;;30.69;40.04;101043.34;6253614;23;19911;-78
2023/08/14 09:15:14;;;;;;;;;;;;;;;30.77;40.06;101039.13;6253906;23;20238;-79
2023/08/14 09:18:06;;;;;;;;;;;;;;;30.94;39.34;101035.75;6250334;23;19912;-80
2023/08/14 09:20:59;;;;;;;;;;;;;;;31.06;38.69;101039.84;6252539;23;19915;-79
2023/08/14 09:23:51;;;;;;;;;;;;;;;31.25;39.52;101036.03;6253136;23;19911;-78
2023/08/14 09:26:43;;;;;;;;;;;;;;;31.25;39.27;101038.84;6248951;23;19908;-78
2023/08/14 09:29:33;;;;;;;;;;;;;;;31.21;38.78;101043.81;6250824;23;19911;-78
2023/08/14 09:32:28;;;;;;;;;;;;;;;31.11;38.92;101044.13;6254023;23;19908;-78
2023/08/14 09:35:20;;;;;;;;;;;;;;;31.16;38.91;101044.34;6230477;23;20327;-79
2023/08/14 09:38:12;;;;;;;;;;;;;;;31.12;38.66;101034.47;6251145;23;19907;-77
2023/08/14 09:41:04;;;;;;;;;;;;;;;31.15;38.35;101037.16;6230852;23;19912;-78
2023/08/14 09:44:01;;;;;;;;;;;;;;;31.22;38.40;101036.16;6232785;23;20323;-79
2023/08/14 09:46:53;;;;;;;;;;;;;;;31.20;38.47;101028.16;6254948;23;19908;-78
2023/08/14 09:49:44;;;;;;;;;;;;;;;31.23;38.79;101032.91;6253704;23;19908;-79
2023/08/14 09:52:36;;;;;;;;;;;;;;;31.37;38.67;101026.03;6233731;23;19911;-78
2023/08/14 09:55:29;;;;;;;;;;;;;;;31.49;38.16;101027.28;6259300;23;19908;-79
2023/08/14 09:58:20;;;;;;;;;;;;;;;31.59;37.05;101026.16;6236828;23;19908;-79
2023/08/14 10:01:13;;;;;;;;;;;;;;;31.72;36.17;101018.47;6259164;23;20242;-80
2023/08/14 10:04:06;;;;;;;;;;;;;;;31.75;36.10;101023.19;6256778;23;19907;-80
2023/08/14 10:06:59;;;;;;;;;;;;;;;31.78;34.50;101013.84;6235000;23;19908;-79
2023/08/14 10:09:52;;;;;;;;;;;;;;;31.88;35.23;101018.31;6258065;23;19907;-79
2023/08/14 10:13:01;;;;;;;;;;;;;;;31.93;35.29;101014.16;6258490;23;20246;-79
2023/08/14 10:15:54;;;;;;;;;;;;;;;32.01;34.54;101013.44;6256651;23;19908;-80
2023/08/14 10:18:45;;;;;;;;;;;;;;;31.94;35.13;101005.25;6257854;23;20298;-78
2023/08/14 10:21:36;;;;;;;;;;;;;;;31.97;35.77;101003.56;6256269;23;20327;-79
2023/08/14 10:24:28;;;;;;;;;;;;;;;31.96;34.13;100987.91;6256574;23;20323;-79
2023/08/14 10:27:20;;;;;;;;;;;;;;;32.10;35.55;100988.19;6258063;23;19907;-80
2023/08/14 10:30:12;;;;;;;;;;;;;;;32.23;35.57;100996.59;6253819;23;19918;-80
2023/08/14 10:33:05;;;;;;;;;;;;;;;32.34;34.55;100996.22;6256829;23;19907;-79
2023/08/14 10:35:55;;;;;;;;;;;;;;;32.40;34.59;100988.75;6256032;23;20470;-79
2023/08/14 10:38:47;;;;;;;;;;;;;;;32.34;34.54;100979.31;6256053;23;19907;-79
2023/08/14 10:41:39;;;;;;;;;;;;;;;32.43;35.04;100979.38;6255553;23;19915;-79
2023/08/14 10:44:40;;;;;;;;;;;;;;;32.57;33.57;100987.28;6233968;23;19907;-79
2023/08/14 10:47:33;;;;;;;;;;;;;;;32.62;34.15;100986.69;6256841;23;20335;-79
2023/08/14 10:50:23;;;;;;;;;;;;;;;32.68;34.15;100985.69;6253582;23;19911;-80
2023/08/14 10:53:12;;;;;;;;;;;;;;;32.63;33.89;100982.63;6256713;23;19908;-79
2023/08/14 10:56:06;;;;;;;;;;;;;;;32.65;34.24;100983.00;6256354;23;19907;-79
2023/08/14 10:58:56;;;;;;;;;;;;;;;32.67;33.90;100977.69;6254522;23;19911;-80
2023/08/14 11:01:45;;;;;;;;;;;;;;;32.64;34.54;100970.16;6233884;23;19916;-79
2023/08/14 11:04:42;;;;;;;;;;;;;;;32.69;35.58;100980.81;6232441;23;20327;-79
2023/08/14 11:07:32;;;;;;;;;;;;;;;32.86;36.12;100973.72;6255730;23;19911;-79
2023/08/14 11:10:25;;;;;;;;;;;;;;;32.90;35.32;100971.53;6255710;23;19911;-79
2023/08/14 11:13:14;;;;;;;;;;;;;;;33.00;36.18;100967.50;6256083;23;20323;-79
2023/08/14 11:16:05;;;;;;;;;;;;;;;33.15;37.08;100969.75;6255703;23;19907;-78
2023/08/14 11:18:57;;;;;;;;;;;;;;;33.21;36.67;100971.53;6254927;23;19907;-78
2023/08/14 11:21:45;;;;;;;;;;;;;;;33.34;35.47;100958.09;6255660;23;20251;-79
2023/08/14 11:24:38;;;;;;;;;;;;;;;33.24;35.92;100961.34;6253893;23;19908;-78
2023/08/14 11:27:30;;;;;;;;;;;;;;;33.28;36.34;100970.44;6255193;23;20338;-78
2023/08/14 11:30:23;;;;;;;;;;;;;;;33.36;36.10;100957.63;6253818;23;19908;-79
2023/08/14 11:33:15;;;;;;;;;;;;;;;33.45;35.40;100957.66;6233053;23;19912;-79
2023/08/14 11:36:07;;;;;;;;;;;;;;;33.32;35.09;100959.81;6232899;23;19908;-79
2023/08/14 11:38:55;;;;;;;;;;;;;;;33.40;35.17;100961.88;6255586;23;19907;-80
2023/08/14 11:41:47;;;;;;;;;;;;;;;33.34;35.41;100948.84;6254732;23;19911;-80
2023/08/14 11:44:34;;;;;;;;;;;;;;;33.39;35.11;100951.03;6253731;23;19920;-80
2023/08/14 11:47:24;;;;;;;;;;;;;;;33.57;36.29;100951.09;6233173;23;19907;-80
2023/08/14 11:50:15;;;;;;;;;;;;;;;33.49;35.65;100944.16;6232639;23;19908;-81
2023/08/14 11:53:07;;;;;;;;;;;;;;;33.63;34.70;100949.19;6232867;23;19907;-80
2023/08/14 11:55:59;;;;;;;;;;;;;;;33.73;33.93;100947.97;6254013;23;19911;-79
2023/08/14 11:58:49;;;;;;;;;;;;;;;33.67;34.04;100947.03;6253297;23;20243;-80
2023/08/14 12:01:41;;;;;;;;;;;;;;;33.80;33.37;100947.69;6251307;23;19915;-79
2023/08/14 12:04:31;;;;;;;;;;;;;;;33.75;32.96;100944.69;6252747;23;20250;-80
2023/08/14 12:07:23;;;;;;;;;;;;;;;33.76;32.66;100947.06;6253416;23;19907;-79
2023/08/14 12:10:16;;;;;;;;;;;;;;;33.80;32.69;100946.91;6254410;23;20502;-79
2023/08/14 12:13:03;;;;;;;;;;;;;;;33.90;31.91;100951.28;6255209;23;20250;-80
2023/08/14 12:15:55;;;;;;;;;;;;;;;33.83;32.05;100952.38;6255111;23;19911;-79
2023/08/14 12:18:45;;;;;;;;;;;;;;;33.58;31.49;100941.34;6254364;23;20238;-78
2023/08/14 12:21:34;;;;;;;;;;;;;;;33.80;32.71;100939.22;6254513;23;20014;-78
2023/08/14 12:24:23;;;;;;;;;;;;;;;33.97;31.93;100931.22;6232768;23;19911;-79
2023/08/14 12:27:17;;;;;;;;;;;;;;;34.02;32.09;100939.06;6253768;23;20258;-80
2023/08/14 12:30:10;;;;;;;;;;;;;;;34.02;31.90;100935.44;6254499;23;19911;-79
2023/08/14 12:33:02;;;;;;;;;;;;;;;34.02;31.56;100935.44;6253830;23;19907;-80
2023/08/14 12:35:53;;;;;;;;;;;;;;;34.07;30.94;100932.78;6254666;23;20323;-79
2023/08/14 12:38:45;;;;;;;;;;;;;;;34.18;30.34;100926.66;6232500;23;19907;-80
2023/08/14 12:41:32;;;;;;;;;;;;;;;34.19;31.72;100929.00;6232319;23;19912;-80
2023/08/14 12:44:19;;;;;;;;;;;;;;;34.10;31.06;100919.75;6232162;23;19911;-81
2023/08/14 12:47:11;;;;;;;;;;;;;;;34.21;31.09;100920.84;6252089;23;19911;-79
2023/08/14 12:50:03;;;;;;;;;;;;;;;34.32;31.32;100903.44;6230973;23;19908;-79
2023/08/14 12:52:53;;;;;;;;;;;;;;;34.15;32.07;100905.00;6253942;23;19907;-79
2023/08/14 12:55:40;;;;;;;;;;;;;;;34.20;32.74;100904.38;6254291;23;19907;-80
2023/08/14 12:58:32;;;;;;;;;;;;;;;34.22;32.35;100901.88;6254197;23;19911;-79
2023/08/14 13:01:21;;;;;;;;;;;;;;;34.19;31.72;100894.34;6255023;23;19911;-80
2023/08/14 13:04:11;;;;;;;;;;;;;;;34.25;32.03;100886.81;6256636;23;20326;-80
2023/08/14 13:07:01;;;;;;;;;;;;;;;34.25;32.65;100893.22;6256853;23;19912;-79
2023/08/14 13:09:50;;;;;;;;;;;;;;;34.32;32.94;100884.44;6257005;23;19908;-80
2023/08/14 13:12:37;;;;;;;;;;;;;;;34.34;31.63;100883.94;6253157;23;19911;-80
2023/08/14 13:15:29;;;;;;;;;;;;;;;34.35;31.87;100877.03;6234182;23;19911;-79
2023/08/14 13:18:21;;;;;;;;;;;;;;;34.30;31.96;100872.03;6251491;23;20399;-80
2023/08/14 13:21:11;;;;;;;;;;;;;;;34.31;33.04;100876.44;6258575;23;19911;-79
2023/08/14 13:24:02;;;;;;;;;;;;;;;34.31;33.65;100873.63;6235385;23;19911;-80
2023/08/14 13:26:56;;;;;;;;;;;;;;;34.22;33.52;100856.69;6247799;23;19922;-79
2023/08/14 13:29:48;;;;;;;;;;;;;;;34.30;33.78;100861.53;6257586;23;19911;-80
2023/08/14 13:32:39;;;;;;;;;;;;;;;34.32;33.38;100852.59;6258125;23;19911;-79
2023/08/14 13:35:29;;;;;;;;;;;;;;;34.27;33.07;100850.41;6257381;23;19908;-80
2023/08/14 13:38:21;;;;;;;;;;;;;;;34.35;32.93;100852.41;6254358;23;20319;-79
2023/08/14 13:41:12;;;;;;;;;;;;;;;34.41;33.66;100854.59;6255322;23;19916;-79
2023/08/14 13:44:02;;;;;;;;;;;;;;;34.37;32.44;100857.59;6233227;23;19911;-80
2023/08/14 13:46:54;;;;;;;;;;;;;;;34.24;33.08;100851.34;6234917;23;20338;-79
2023/08/14 13:49:46;;;;;;;;;;;;;;;34.24;33.27;100852.13;6232852;23;20255;-79
2023/08/14 13:52:38;;;;;;;;;;;;;;;34.30;32.71;100858.72;6233571;23;19911;-79
2023/08/14 13:55:28;;;;;;;;;;;;;;;34.31;33.43;100857.44;6256721;23;19911;-78
2023/08/14 13:58:20;;;;;;;;;;;;;;;34.40;32.57;100853.81;6256995;23;20328;-79
2023/08/14 14:01:12;;;;;;;;;;;;;;;34.46;32.39;100860.38;6256375;23;19911;-80
2023/08/14 14:04:04;;;;;;;;;;;;;;;34.39;33.18;100857.88;6256382;23;19912;-80
2023/08/14 14:06:51;;;;;;;;;;;;;;;34.41;32.79;100855.38;6256117;23;19911;-79
2023/08/14 14:09:43;;;;;;;;;;;;;;;34.29;33.63;100850.69;6232315;23;19907;-80
2023/08/14 14:12:32;;;;;;;;;;;;;;;34.21;33.23;100863.59;6255301;23;20235;-79
2023/08/14 14:15:22;;;;;;;;;;;;;;;34.05;32.98;100866.75;6256124;23;19912;-79
2023/08/14 14:18:14;;;;;;;;;;;;;;;34.01;32.99;100863.31;6233824;23;20246;-80
2023/08/14 14:21:04;;;;;;;;;;;;;;;34.03;32.96;100874.91;6254478;23;19919;-81
2023/08/14 14:23:56;;;;;;;;;;;;;;;33.94;33.28;100862.38;6256177;23;19908;-80
2023/08/14 14:26:47;;;;;;;;;;;;;;;33.83;34.37;100862.06;6233784;23;19907;-80
2023/08/14 14:29:37;;;;;;;;;;;;;;;33.87;32.84;100862.72;6255343;23;19911;-79
2023/08/14 14:32:29;;;;;;;;;;;;;;;33.65;34.23;100866.94;6256459;23;19912;-81
2023/08/14 14:35:21;;;;;;;;;;;;;;;33.58;34.87;100865.19;6231202;23;19907;-81
2023/08/14 14:38:13;;;;;;;;;;;;;;;33.53;33.89;100871.47;6231659;23;20327;-80
2023/08/14 14:41:05;;;;;;;;;;;;;;;33.55;34.55;100865.34;6254460;23;20247;-80